sensor_id;sensor_type;location;lat;lon;timestamp;P1;durP1;ratioP1;P2;durP2;ratioP2
15952;SDS011;8075;47.766;8.846;2024-01-30T00:01:22;27.30;;;20.90;;
15952;SDS011;8075;47.766;8.846;2024-01-30T00:03:48;27.42;;;21.50;;
15952;SDS011;8075;47.766;8.846;2024-01-30T00:06:17;30.40;;;21.27;;
15952;SDS011;8075;47.766;8.846;2024-01-30T00:08:44;25.33;;;19.87;;
15952;SDS011;8075;47.766;8.846;2024-01-30T00:11:11;28.57;;;20.70;;
15952;SDS011;8075;47.766;8.846;2024-01-30T00:13:37;23.40;;;19.33;;
15952;SDS011;8075;47.766;8.846;2024-01-30T00:16:03;24.63;;;19.42;;
15952;SDS011;8075;47.766;8.846;2024-01-30T00:18:29;27.90;;;22.50;;
15952;SDS011;8075;47.766;8.846;2024-01-30T00:20:55;25.45;;;20.13;;
15952;SDS011;8075;47.766;8.846;2024-01-30T00:23:21;26.25;;;20.50;;
15952;SDS011;8075;47.766;8.846;2024-01-30T00:25:47;41.55;;;29.20;;
15952;SDS011;8075;47.766;8.846;2024-01-30T00:28:13;25.85;;;20.58;;
15952;SDS011;8075;47.766;8.846;2024-01-30T00:30:39;26.42;;;20.83;;
15952;SDS011;8075;47.766;8.846;2024-01-30T00:33:05;24.05;;;19.92;;
15952;SDS011;8075;47.766;8.846;2024-01-30T00:35:33;21.83;;;18.80;;
15952;SDS011;8075;47.766;8.846;2024-01-30T00:37:59;27.35;;;20.75;;
15952;SDS011;8075;47.766;8.846;2024-01-30T00:40:25;28.00;;;21.02;;
15952;SDS011;8075;47.766;8.846;2024-01-30T00:42:51;24.60;;;20.42;;
15952;SDS011;8075;47.766;8.846;2024-01-30T00:45:17;28.05;;;21.02;;
15952;SDS011;8075;47.766;8.846;2024-01-30T00:47:43;27.88;;;21.15;;
15952;SDS011;8075;47.766;8.846;2024-01-30T00:50:09;29.73;;;20.77;;
15952;SDS011;8075;47.766;8.846;2024-01-30T00:52:35;26.03;;;19.90;;
15952;SDS011;8075;47.766;8.846;2024-01-30T00:55:01;27.00;;;20.73;;
15952;SDS011;8075;47.766;8.846;2024-01-30T00:57:28;31.15;;;21.80;;
15952;SDS011;8075;47.766;8.846;2024-01-30T00:59:54;33.25;;;22.40;;
15952;SDS011;8075;47.766;8.846;2024-01-30T01:02:20;32.15;;;22.20;;
15952;SDS011;8075;47.766;8.846;2024-01-30T01:04:46;31.40;;;22.52;;
15952;SDS011;8075;47.766;8.846;2024-01-30T01:07:12;32.33;;;22.43;;
15952;SDS011;8075;47.766;8.846;2024-01-30T01:09:38;32.17;;;22.60;;
15952;SDS011;8075;47.766;8.846;2024-01-30T01:12:04;30.27;;;22.73;;
15952;SDS011;8075;47.766;8.846;2024-01-30T01:14:30;31.48;;;22.33;;
15952;SDS011;8075;47.766;8.846;2024-01-30T01:16:56;32.40;;;22.58;;
15952;SDS011;8075;47.766;8.846;2024-01-30T01:19:22;32.25;;;22.38;;
15952;SDS011;8075;47.766;8.846;2024-01-30T01:21:48;31.15;;;22.27;;
15952;SDS011;8075;47.766;8.846;2024-01-30T01:24:14;30.98;;;21.80;;
15952;SDS011;8075;47.766;8.846;2024-01-30T01:26:40;29.67;;;21.30;;
15952;SDS011;8075;47.766;8.846;2024-01-30T01:29:06;29.40;;;21.30;;
15952;SDS011;8075;47.766;8.846;2024-01-30T01:31:37;30.20;;;22.00;;
15952;SDS011;8075;47.766;8.846;2024-01-30T01:34:09;30.25;;;21.42;;
15952;SDS011;8075;47.766;8.846;2024-01-30T01:36:35;27.88;;;20.80;;
15952;SDS011;8075;47.766;8.846;2024-01-30T01:39:01;28.77;;;21.40;;
15952;SDS011;8075;47.766;8.846;2024-01-30T01:41:31;27.15;;;19.75;;
15952;SDS011;8075;47.766;8.846;2024-01-30T01:43:57;27.15;;;20.17;;
15952;SDS011;8075;47.766;8.846;2024-01-30T01:46:24;27.03;;;19.70;;
15952;SDS011;8075;47.766;8.846;2024-01-30T01:48:50;25.90;;;19.50;;
15952;SDS011;8075;47.766;8.846;2024-01-30T01:51:16;23.67;;;18.08;;
15952;SDS011;8075;47.766;8.846;2024-01-30T01:53:42;25.45;;;18.48;;
15952;SDS011;8075;47.766;8.846;2024-01-30T01:56:08;25.60;;;18.27;;
15952;SDS011;8075;47.766;8.846;2024-01-30T01:58:34;23.45;;;16.95;;
15952;SDS011;8075;47.766;8.846;2024-01-30T02:01:01;22.52;;;17.58;;
15952;SDS011;8075;47.766;8.846;2024-01-30T02:03:27;22.15;;;17.40;;
15952;SDS011;8075;47.766;8.846;2024-01-30T02:05:54;23.40;;;17.63;;
15952;SDS011;8075;47.766;8.846;2024-01-30T02:08:20;23.98;;;17.52;;
15952;SDS011;8075;47.766;8.846;2024-01-30T02:10:46;25.63;;;18.42;;
15952;SDS011;8075;47.766;8.846;2024-01-30T02:13:12;25.30;;;18.53;;
15952;SDS011;8075;47.766;8.846;2024-01-30T02:15:38;25.73;;;18.67;;
15952;SDS011;8075;47.766;8.846;2024-01-30T02:18:04;28.77;;;19.42;;
15952;SDS011;8075;47.766;8.846;2024-01-30T02:20:30;28.48;;;20.60;;
15952;SDS011;8075;47.766;8.846;2024-01-30T02:22:57;28.45;;;20.10;;
15952;SDS011;8075;47.766;8.846;2024-01-30T02:25:37;27.33;;;19.48;;
15952;SDS011;8075;47.766;8.846;2024-01-30T02:28:03;27.35;;;19.98;;
15952;SDS011;8075;47.766;8.846;2024-01-30T02:30:29;30.70;;;20.30;;
15952;SDS011;8075;47.766;8.846;2024-01-30T02:32:55;30.13;;;20.45;;
15952;SDS011;8075;47.766;8.846;2024-01-30T02:35:21;31.40;;;21.23;;
15952;SDS011;8075;47.766;8.846;2024-01-30T02:37:47;28.60;;;19.52;;
15952;SDS011;8075;47.766;8.846;2024-01-30T02:40:13;29.05;;;20.17;;
15952;SDS011;8075;47.766;8.846;2024-01-30T02:42:39;29.63;;;20.73;;
15952;SDS011;8075;47.766;8.846;2024-01-30T02:45:06;30.30;;;21.05;;
15952;SDS011;8075;47.766;8.846;2024-01-30T02:47:33;30.85;;;20.65;;
15952;SDS011;8075;47.766;8.846;2024-01-30T02:49:59;28.67;;;20.35;;
15952;SDS011;8075;47.766;8.846;2024-01-30T02:52:25;27.02;;;19.63;;
15952;SDS011;8075;47.766;8.846;2024-01-30T02:54:51;29.33;;;20.35;;
15952;SDS011;8075;47.766;8.846;2024-01-30T02:57:17;28.33;;;19.60;;
15952;SDS011;8075;47.766;8.846;2024-01-30T02:59:43;26.92;;;19.45;;
15952;SDS011;8075;47.766;8.846;2024-01-30T03:02:09;27.38;;;19.52;;
15952;SDS011;8075;47.766;8.846;2024-01-30T03:04:35;29.60;;;19.45;;
15952;SDS011;8075;47.766;8.846;2024-01-30T03:07:00;30.10;;;19.58;;
15952;SDS011;8075;47.766;8.846;2024-01-30T03:09:27;29.05;;;20.20;;
15952;SDS011;8075;47.766;8.846;2024-01-30T03:11:53;28.17;;;19.92;;
15952;SDS011;8075;47.766;8.846;2024-01-30T03:14:19;25.83;;;18.98;;
15952;SDS011;8075;47.766;8.846;2024-01-30T03:16:45;27.73;;;19.52;;
15952;SDS011;8075;47.766;8.846;2024-01-30T03:19:11;27.23;;;18.77;;
15952;SDS011;8075;47.766;8.846;2024-01-30T03:21:37;29.67;;;19.45;;
15952;SDS011;8075;47.766;8.846;2024-01-30T03:24:03;27.95;;;19.55;;
15952;SDS011;8075;47.766;8.846;2024-01-30T03:26:29;29.60;;;19.77;;
15952;SDS011;8075;47.766;8.846;2024-01-30T03:28:55;25.57;;;19.07;;
15952;SDS011;8075;47.766;8.846;2024-01-30T03:31:21;27.90;;;19.60;;
15952;SDS011;8075;47.766;8.846;2024-01-30T03:33:47;28.03;;;19.80;;
15952;SDS011;8075;47.766;8.846;2024-01-30T03:36:15;30.02;;;20.10;;
15952;SDS011;8075;47.766;8.846;2024-01-30T03:38:41;31.27;;;20.60;;
15952;SDS011;8075;47.766;8.846;2024-01-30T03:41:07;29.65;;;19.83;;
15952;SDS011;8075;47.766;8.846;2024-01-30T03:43:34;31.50;;;19.95;;
15952;SDS011;8075;47.766;8.846;2024-01-30T03:46:01;26.07;;;19.17;;
15952;SDS011;8075;47.766;8.846;2024-01-30T03:48:27;30.20;;;20.48;;
15952;SDS011;8075;47.766;8.846;2024-01-30T03:50:53;27.77;;;20.08;;
15952;SDS011;8075;47.766;8.846;2024-01-30T03:53:19;31.70;;;20.50;;
15952;SDS011;8075;47.766;8.846;2024-01-30T03:55:45;28.70;;;19.45;;
15952;SDS011;8075;47.766;8.846;2024-01-30T03:58:11;32.38;;;21.42;;
15952;SDS011;8075;47.766;8.846;2024-01-30T04:00:37;30.00;;;19.88;;
15952;SDS011;8075;47.766;8.846;2024-01-30T04:03:03;30.70;;;19.67;;
15952;SDS011;8075;47.766;8.846;2024-01-30T04:05:30;31.50;;;20.30;;
15952;SDS011;8075;47.766;8.846;2024-01-30T04:07:55;27.85;;;19.17;;
15952;SDS011;8075;47.766;8.846;2024-01-30T04:10:22;26.40;;;19.10;;
15952;SDS011;8075;47.766;8.846;2024-01-30T04:12:48;28.25;;;19.77;;
15952;SDS011;8075;47.766;8.846;2024-01-30T04:15:14;28.33;;;19.15;;
15952;SDS011;8075;47.766;8.846;2024-01-30T04:17:41;31.25;;;20.45;;
15952;SDS011;8075;47.766;8.846;2024-01-30T04:20:07;33.97;;;21.80;;
15952;SDS011;8075;47.766;8.846;2024-01-30T04:22:33;38.65;;;23.55;;
15952;SDS011;8075;47.766;8.846;2024-01-30T04:24:59;36.27;;;22.23;;
15952;SDS011;8075;47.766;8.846;2024-01-30T04:27:25;37.72;;;22.63;;
15952;SDS011;8075;47.766;8.846;2024-01-30T04:29:51;42.38;;;23.92;;
15952;SDS011;8075;47.766;8.846;2024-01-30T04:32:17;45.28;;;24.98;;
15952;SDS011;8075;47.766;8.846;2024-01-30T04:34:43;39.20;;;23.08;;
15952;SDS011;8075;47.766;8.846;2024-01-30T04:37:10;43.30;;;24.15;;
15952;SDS011;8075;47.766;8.846;2024-01-30T04:39:36;43.15;;;24.45;;
15952;SDS011;8075;47.766;8.846;2024-01-30T04:42:02;45.22;;;25.08;;
15952;SDS011;8075;47.766;8.846;2024-01-30T04:44:28;48.67;;;26.48;;
15952;SDS011;8075;47.766;8.846;2024-01-30T04:46:54;48.45;;;26.52;;
15952;SDS011;8075;47.766;8.846;2024-01-30T04:49:23;48.00;;;26.73;;
15952;SDS011;8075;47.766;8.846;2024-01-30T04:51:49;55.23;;;29.30;;
15952;SDS011;8075;47.766;8.846;2024-01-30T04:54:15;49.17;;;26.52;;
15952;SDS011;8075;47.766;8.846;2024-01-30T04:56:41;46.78;;;25.30;;
15952;SDS011;8075;47.766;8.846;2024-01-30T04:59:07;50.50;;;28.25;;
15952;SDS011;8075;47.766;8.846;2024-01-30T05:01:33;53.35;;;27.92;;
15952;SDS011;8075;47.766;8.846;2024-01-30T05:03:59;48.03;;;26.40;;
15952;SDS011;8075;47.766;8.846;2024-01-30T05:06:26;49.33;;;26.85;;
15952;SDS011;8075;47.766;8.846;2024-01-30T05:08:52;48.55;;;27.42;;
15952;SDS011;8075;47.766;8.846;2024-01-30T05:11:18;47.70;;;25.77;;
15952;SDS011;8075;47.766;8.846;2024-01-30T05:13:45;45.53;;;25.95;;
15952;SDS011;8075;47.766;8.846;2024-01-30T05:16:11;42.25;;;25.02;;
15952;SDS011;8075;47.766;8.846;2024-01-30T05:18:36;42.58;;;24.73;;
15952;SDS011;8075;47.766;8.846;2024-01-30T05:21:03;43.30;;;24.63;;
15952;SDS011;8075;47.766;8.846;2024-01-30T05:23:29;44.53;;;25.60;;
15952;SDS011;8075;47.766;8.846;2024-01-30T05:25:55;40.80;;;24.13;;
15952;SDS011;8075;47.766;8.846;2024-01-30T05:28:21;42.72;;;24.88;;
15952;SDS011;8075;47.766;8.846;2024-01-30T05:30:47;39.78;;;24.13;;
15952;SDS011;8075;47.766;8.846;2024-01-30T05:33:12;40.60;;;24.33;;
15952;SDS011;8075;47.766;8.846;2024-01-30T05:35:38;39.88;;;24.27;;
15952;SDS011;8075;47.766;8.846;2024-01-30T05:38:04;39.13;;;23.00;;
15952;SDS011;8075;47.766;8.846;2024-01-30T05:40:30;37.53;;;23.17;;
15952;SDS011;8075;47.766;8.846;2024-01-30T05:42:57;41.13;;;23.67;;
15952;SDS011;8075;47.766;8.846;2024-01-30T05:45:27;36.75;;;23.20;;
15952;SDS011;8075;47.766;8.846;2024-01-30T05:47:53;35.53;;;22.33;;
15952;SDS011;8075;47.766;8.846;2024-01-30T05:50:20;39.70;;;22.50;;
15952;SDS011;8075;47.766;8.846;2024-01-30T05:52:48;60.30;;;30.20;;
15952;SDS011;8075;47.766;8.846;2024-01-30T05:55:14;61.10;;;32.40;;
15952;SDS011;8075;47.766;8.846;2024-01-30T05:57:40;35.63;;;22.80;;
15952;SDS011;8075;47.766;8.846;2024-01-30T06:00:06;38.92;;;22.95;;
15952;SDS011;8075;47.766;8.846;2024-01-30T06:02:33;37.25;;;22.77;;
15952;SDS011;8075;47.766;8.846;2024-01-30T06:04:59;35.87;;;22.60;;
15952;SDS011;8075;47.766;8.846;2024-01-30T06:07:25;38.33;;;23.95;;
15952;SDS011;8075;47.766;8.846;2024-01-30T06:09:51;39.55;;;24.13;;
15952;SDS011;8075;47.766;8.846;2024-01-30T06:12:17;42.40;;;23.80;;
15952;SDS011;8075;47.766;8.846;2024-01-30T06:14:43;42.85;;;24.00;;
15952;SDS011;8075;47.766;8.846;2024-01-30T06:17:09;39.22;;;23.38;;
15952;SDS011;8075;47.766;8.846;2024-01-30T06:19:36;39.65;;;23.08;;
15952;SDS011;8075;47.766;8.846;2024-01-30T06:22:03;38.70;;;23.95;;
15952;SDS011;8075;47.766;8.846;2024-01-30T06:24:29;35.25;;;22.00;;
15952;SDS011;8075;47.766;8.846;2024-01-30T06:26:55;35.60;;;22.33;;
15952;SDS011;8075;47.766;8.846;2024-01-30T06:29:21;35.25;;;22.25;;
15952;SDS011;8075;47.766;8.846;2024-01-30T06:31:49;38.65;;;22.75;;
15952;SDS011;8075;47.766;8.846;2024-01-30T06:34:16;38.08;;;22.75;;
15952;SDS011;8075;47.766;8.846;2024-01-30T06:36:42;38.55;;;22.90;;
15952;SDS011;8075;47.766;8.846;2024-01-30T06:39:08;37.70;;;23.02;;
15952;SDS011;8075;47.766;8.846;2024-01-30T06:41:34;38.88;;;22.80;;
15952;SDS011;8075;47.766;8.846;2024-01-30T06:44:01;44.33;;;23.52;;
15952;SDS011;8075;47.766;8.846;2024-01-30T06:46:29;36.47;;;23.15;;
15952;SDS011;8075;47.766;8.846;2024-01-30T06:48:55;36.30;;;22.67;;
15952;SDS011;8075;47.766;8.846;2024-01-30T06:51:21;38.35;;;23.08;;
15952;SDS011;8075;47.766;8.846;2024-01-30T06:53:46;36.92;;;22.83;;
15952;SDS011;8075;47.766;8.846;2024-01-30T06:56:12;43.92;;;24.13;;
15952;SDS011;8075;47.766;8.846;2024-01-30T06:58:38;41.78;;;25.25;;
15952;SDS011;8075;47.766;8.846;2024-01-30T07:01:04;43.33;;;25.47;;
15952;SDS011;8075;47.766;8.846;2024-01-30T07:03:30;42.75;;;25.48;;
15952;SDS011;8075;47.766;8.846;2024-01-30T07:05:56;41.63;;;24.88;;
15952;SDS011;8075;47.766;8.846;2024-01-30T07:08:22;44.60;;;25.88;;
15952;SDS011;8075;47.766;8.846;2024-01-30T07:10:48;43.90;;;25.45;;
15952;SDS011;8075;47.766;8.846;2024-01-30T07:13:14;40.55;;;25.02;;
15952;SDS011;8075;47.766;8.846;2024-01-30T07:15:41;44.63;;;25.60;;
15952;SDS011;8075;47.766;8.846;2024-01-30T07:18:07;43.00;;;25.27;;
15952;SDS011;8075;47.766;8.846;2024-01-30T07:20:34;47.70;;;26.42;;
15952;SDS011;8075;47.766;8.846;2024-01-30T07:23:01;43.27;;;24.57;;
15952;SDS011;8075;47.766;8.846;2024-01-30T07:25:28;48.78;;;26.52;;
15952;SDS011;8075;47.766;8.846;2024-01-30T07:27:55;42.95;;;24.52;;
15952;SDS011;8075;47.766;8.846;2024-01-30T07:30:21;44.95;;;25.60;;
15952;SDS011;8075;47.766;8.846;2024-01-30T07:32:48;48.10;;;26.80;;
15952;SDS011;8075;47.766;8.846;2024-01-30T07:35:14;46.58;;;26.15;;
15952;SDS011;8075;47.766;8.846;2024-01-30T07:37:40;45.45;;;25.17;;
15952;SDS011;8075;47.766;8.846;2024-01-30T07:40:06;48.75;;;26.75;;
15952;SDS011;8075;47.766;8.846;2024-01-30T07:42:32;44.20;;;25.80;;
15952;SDS011;8075;47.766;8.846;2024-01-30T07:44:59;44.83;;;26.20;;
15952;SDS011;8075;47.766;8.846;2024-01-30T07:47:26;47.63;;;26.92;;
15952;SDS011;8075;47.766;8.846;2024-01-30T07:49:52;44.25;;;24.83;;
15952;SDS011;8075;47.766;8.846;2024-01-30T07:52:19;44.97;;;25.42;;
15952;SDS011;8075;47.766;8.846;2024-01-30T07:54:48;42.40;;;24.35;;
15952;SDS011;8075;47.766;8.846;2024-01-30T07:57:14;44.10;;;25.75;;
15952;SDS011;8075;47.766;8.846;2024-01-30T07:59:44;44.70;;;24.93;;
15952;SDS011;8075;47.766;8.846;2024-01-30T08:02:11;42.05;;;24.20;;
15952;SDS011;8075;47.766;8.846;2024-01-30T08:04:37;42.58;;;24.52;;
15952;SDS011;8075;47.766;8.846;2024-01-30T08:07:04;47.03;;;25.27;;
15952;SDS011;8075;47.766;8.846;2024-01-30T08:09:30;48.05;;;26.42;;
15952;SDS011;8075;47.766;8.846;2024-01-30T08:11:56;43.30;;;24.27;;
15952;SDS011;8075;47.766;8.846;2024-01-30T08:14:22;38.78;;;23.23;;
15952;SDS011;8075;47.766;8.846;2024-01-30T08:16:48;38.70;;;22.98;;
15952;SDS011;8075;47.766;8.846;2024-01-30T08:19:14;36.97;;;23.67;;
15952;SDS011;8075;47.766;8.846;2024-01-30T08:21:40;45.03;;;25.65;;
15952;SDS011;8075;47.766;8.846;2024-01-30T08:24:06;44.47;;;26.60;;
15952;SDS011;8075;47.766;8.846;2024-01-30T08:26:32;49.77;;;27.10;;
15952;SDS011;8075;47.766;8.846;2024-01-30T08:28:58;49.17;;;26.40;;
15952;SDS011;8075;47.766;8.846;2024-01-30T08:31:25;53.90;;;29.27;;
15952;SDS011;8075;47.766;8.846;2024-01-30T08:33:51;48.10;;;26.92;;
15952;SDS011;8075;47.766;8.846;2024-01-30T08:36:17;46.90;;;26.63;;
15952;SDS011;8075;47.766;8.846;2024-01-30T08:38:43;50.60;;;27.88;;
15952;SDS011;8075;47.766;8.846;2024-01-30T08:41:09;47.75;;;27.33;;
15952;SDS011;8075;47.766;8.846;2024-01-30T08:43:35;47.58;;;26.98;;
15952;SDS011;8075;47.766;8.846;2024-01-30T08:46:01;49.55;;;27.63;;
15952;SDS011;8075;47.766;8.846;2024-01-30T08:48:28;48.65;;;27.80;;
15952;SDS011;8075;47.766;8.846;2024-01-30T08:50:54;45.53;;;27.25;;
15952;SDS011;8075;47.766;8.846;2024-01-30T08:53:20;49.55;;;27.55;;
15952;SDS011;8075;47.766;8.846;2024-01-30T08:55:46;52.90;;;29.00;;
15952;SDS011;8075;47.766;8.846;2024-01-30T08:58:12;52.95;;;29.30;;
15952;SDS011;8075;47.766;8.846;2024-01-30T09:00:38;51.72;;;28.98;;
15952;SDS011;8075;47.766;8.846;2024-01-30T09:03:04;59.50;;;33.53;;
15952;SDS011;8075;47.766;8.846;2024-01-30T09:05:30;51.67;;;29.83;;
15952;SDS011;8075;47.766;8.846;2024-01-30T09:07:56;52.83;;;29.42;;
15952;SDS011;8075;47.766;8.846;2024-01-30T09:10:22;52.78;;;30.20;;
15952;SDS011;8075;47.766;8.846;2024-01-30T09:12:48;51.55;;;28.92;;
15952;SDS011;8075;47.766;8.846;2024-01-30T09:15:14;52.63;;;29.77;;
15952;SDS011;8075;47.766;8.846;2024-01-30T09:17:40;53.42;;;30.05;;
15952;SDS011;8075;47.766;8.846;2024-01-30T09:20:06;56.10;;;30.17;;
15952;SDS011;8075;47.766;8.846;2024-01-30T09:22:34;56.63;;;31.83;;
15952;SDS011;8075;47.766;8.846;2024-01-30T09:25:00;59.15;;;31.83;;
15952;SDS011;8075;47.766;8.846;2024-01-30T09:27:26;60.08;;;31.85;;
15952;SDS011;8075;47.766;8.846;2024-01-30T09:29:52;64.88;;;34.60;;
15952;SDS011;8075;47.766;8.846;2024-01-30T09:32:18;72.18;;;35.30;;
15952;SDS011;8075;47.766;8.846;2024-01-30T09:34:44;67.38;;;36.42;;
15952;SDS011;8075;47.766;8.846;2024-01-30T09:37:10;77.82;;;37.63;;
15952;SDS011;8075;47.766;8.846;2024-01-30T09:39:36;71.80;;;36.97;;
15952;SDS011;8075;47.766;8.846;2024-01-30T09:42:05;68.22;;;35.00;;
15952;SDS011;8075;47.766;8.846;2024-01-30T09:44:34;69.53;;;36.28;;
15952;SDS011;8075;47.766;8.846;2024-01-30T09:47:02;76.93;;;38.08;;
15952;SDS011;8075;47.766;8.846;2024-01-30T09:49:33;73.53;;;38.28;;
15952;SDS011;8075;47.766;8.846;2024-01-30T09:52:00;81.78;;;40.95;;
15952;SDS011;8075;47.766;8.846;2024-01-30T09:54:28;86.38;;;41.67;;
15952;SDS011;8075;47.766;8.846;2024-01-30T09:56:55;94.07;;;43.95;;
15952;SDS011;8075;47.766;8.846;2024-01-30T09:59:21;98.63;;;50.28;;
15952;SDS011;8075;47.766;8.846;2024-01-30T10:01:47;90.55;;;43.10;;
15952;SDS011;8075;47.766;8.846;2024-01-30T10:04:13;102.15;;;50.47;;
15952;SDS011;8075;47.766;8.846;2024-01-30T10:06:40;93.68;;;47.05;;
15952;SDS011;8075;47.766;8.846;2024-01-30T10:09:06;86.57;;;43.50;;
15952;SDS011;8075;47.766;8.846;2024-01-30T10:11:33;90.35;;;44.63;;
15952;SDS011;8075;47.766;8.846;2024-01-30T10:14:00;91.68;;;44.38;;
15952;SDS011;8075;47.766;8.846;2024-01-30T10:16:26;81.63;;;42.45;;
15952;SDS011;8075;47.766;8.846;2024-01-30T10:18:52;82.47;;;40.03;;
15952;SDS011;8075;47.766;8.846;2024-01-30T10:21:18;80.40;;;38.05;;
15952;SDS011;8075;47.766;8.846;2024-01-30T10:23:44;77.28;;;39.58;;
15952;SDS011;8075;47.766;8.846;2024-01-30T10:26:10;88.55;;;41.58;;
15952;SDS011;8075;47.766;8.846;2024-01-30T10:28:36;80.80;;;40.25;;
15952;SDS011;8075;47.766;8.846;2024-01-30T10:31:02;77.82;;;38.38;;
15952;SDS011;8075;47.766;8.846;2024-01-30T10:33:31;78.63;;;39.75;;
15952;SDS011;8075;47.766;8.846;2024-01-30T10:36:04;78.00;;;39.67;;
15952;SDS011;8075;47.766;8.846;2024-01-30T10:38:31;81.43;;;40.42;;
15952;SDS011;8075;47.766;8.846;2024-01-30T10:40:57;83.88;;;40.38;;
15952;SDS011;8075;47.766;8.846;2024-01-30T10:43:24;77.80;;;39.40;;
15952;SDS011;8075;47.766;8.846;2024-01-30T10:45:51;81.25;;;39.80;;
15952;SDS011;8075;47.766;8.846;2024-01-30T10:48:19;79.30;;;39.20;;
15952;SDS011;8075;47.766;8.846;2024-01-30T10:50:49;86.18;;;41.10;;
15952;SDS011;8075;47.766;8.846;2024-01-30T10:53:16;79.95;;;39.28;;
15952;SDS011;8075;47.766;8.846;2024-01-30T10:55:43;88.05;;;42.63;;
15952;SDS011;8075;47.766;8.846;2024-01-30T10:58:11;79.43;;;40.97;;
15952;SDS011;8075;47.766;8.846;2024-01-30T11:00:37;79.90;;;39.65;;
15952;SDS011;8075;47.766;8.846;2024-01-30T11:03:04;76.53;;;38.97;;
15952;SDS011;8075;47.766;8.846;2024-01-30T11:05:30;83.40;;;40.25;;
15952;SDS011;8075;47.766;8.846;2024-01-30T11:07:56;86.47;;;43.08;;
15952;SDS011;8075;47.766;8.846;2024-01-30T11:10:24;93.97;;;45.13;;
15952;SDS011;8075;47.766;8.846;2024-01-30T11:12:50;95.25;;;45.63;;
15952;SDS011;8075;47.766;8.846;2024-01-30T11:15:16;87.30;;;44.15;;
15952;SDS011;8075;47.766;8.846;2024-01-30T11:20:27;110.90;;;51.97;;
15952;SDS011;8075;47.766;8.846;2024-01-30T11:22:58;110.88;;;54.85;;
15952;SDS011;8075;47.766;8.846;2024-01-30T11:25:24;101.07;;;48.65;;
15952;SDS011;8075;47.766;8.846;2024-01-30T11:27:51;85.60;;;43.50;;
15952;SDS011;8075;47.766;8.846;2024-01-30T11:30:22;90.07;;;44.15;;
15952;SDS011;8075;47.766;8.846;2024-01-30T11:35:33;81.65;;;41.65;;
15952;SDS011;8075;47.766;8.846;2024-01-30T11:37:59;89.85;;;45.13;;
15952;SDS011;8075;47.766;8.846;2024-01-30T11:40:29;77.68;;;42.78;;
15952;SDS011;8075;47.766;8.846;2024-01-30T11:42:55;76.15;;;41.35;;
15952;SDS011;8075;47.766;8.846;2024-01-30T11:45:22;76.63;;;40.50;;
15952;SDS011;8075;47.766;8.846;2024-01-30T11:47:48;81.68;;;43.65;;
15952;SDS011;8075;47.766;8.846;2024-01-30T11:50:14;77.72;;;42.03;;
15952;SDS011;8075;47.766;8.846;2024-01-30T11:52:40;70.97;;;40.53;;
15952;SDS011;8075;47.766;8.846;2024-01-30T11:55:07;79.75;;;41.40;;
15952;SDS011;8075;47.766;8.846;2024-01-30T11:57:33;85.03;;;43.20;;
15952;SDS011;8075;47.766;8.846;2024-01-30T12:00:03;88.78;;;46.13;;
15952;SDS011;8075;47.766;8.846;2024-01-30T12:02:35;81.40;;;41.92;;
15952;SDS011;8075;47.766;8.846;2024-01-30T12:05:07;90.63;;;46.73;;
15952;SDS011;8075;47.766;8.846;2024-01-30T12:07:34;91.23;;;45.67;;
15952;SDS011;8075;47.766;8.846;2024-01-30T12:10:00;92.03;;;46.50;;
15952;SDS011;8075;47.766;8.846;2024-01-30T12:12:27;92.78;;;46.00;;
15952;SDS011;8075;47.766;8.846;2024-01-30T12:14:54;92.22;;;45.88;;
15952;SDS011;8075;47.766;8.846;2024-01-30T12:17:30;80.95;;;42.85;;
15952;SDS011;8075;47.766;8.846;2024-01-30T12:20:06;86.80;;;44.72;;
15952;SDS011;8075;47.766;8.846;2024-01-30T12:22:33;88.73;;;45.37;;
15952;SDS011;8075;47.766;8.846;2024-01-30T12:25:02;87.25;;;46.42;;
15952;SDS011;8075;47.766;8.846;2024-01-30T12:27:29;105.03;;;53.13;;
15952;SDS011;8075;47.766;8.846;2024-01-30T12:29:55;91.82;;;46.88;;
15952;SDS011;8075;47.766;8.846;2024-01-30T12:32:22;87.87;;;46.27;;
15952;SDS011;8075;47.766;8.846;2024-01-30T12:34:48;95.15;;;46.35;;
15952;SDS011;8075;47.766;8.846;2024-01-30T12:37:14;92.10;;;46.13;;
15952;SDS011;8075;47.766;8.846;2024-01-30T12:39:47;91.88;;;46.92;;
15952;SDS011;8075;47.766;8.846;2024-01-30T12:42:13;87.00;;;45.22;;
15952;SDS011;8075;47.766;8.846;2024-01-30T12:44:39;85.88;;;45.90;;
15952;SDS011;8075;47.766;8.846;2024-01-30T12:47:05;84.25;;;44.08;;
15952;SDS011;8075;47.766;8.846;2024-01-30T12:49:31;52.00;;;31.42;;
15952;SDS011;8075;47.766;8.846;2024-01-30T12:51:58;44.90;;;27.75;;
15952;SDS011;8075;47.766;8.846;2024-01-30T12:54:24;41.35;;;27.73;;
15952;SDS011;8075;47.766;8.846;2024-01-30T12:56:50;40.13;;;27.60;;
15952;SDS011;8075;47.766;8.846;2024-01-30T12:59:16;38.28;;;25.70;;
15952;SDS011;8075;47.766;8.846;2024-01-30T13:01:42;40.05;;;28.60;;
15952;SDS011;8075;47.766;8.846;2024-01-30T13:04:08;43.40;;;27.52;;
15952;SDS011;8075;47.766;8.846;2024-01-30T13:06:34;36.20;;;24.77;;
15952;SDS011;8075;47.766;8.846;2024-01-30T13:09:00;35.78;;;26.20;;
15952;SDS011;8075;47.766;8.846;2024-01-30T13:11:26;35.33;;;26.08;;
15952;SDS011;8075;47.766;8.846;2024-01-30T13:13:52;45.17;;;28.00;;
15952;SDS011;8075;47.766;8.846;2024-01-30T13:16:18;33.28;;;25.08;;
15952;SDS011;8075;47.766;8.846;2024-01-30T13:18:44;35.13;;;25.02;;
15952;SDS011;8075;47.766;8.846;2024-01-30T13:21:10;35.30;;;24.23;;
15952;SDS011;8075;47.766;8.846;2024-01-30T13:23:36;35.45;;;24.08;;
15952;SDS011;8075;47.766;8.846;2024-01-30T13:26:02;39.45;;;27.00;;
15952;SDS011;8075;47.766;8.846;2024-01-30T13:28:28;35.03;;;25.20;;
15952;SDS011;8075;47.766;8.846;2024-01-30T13:30:54;38.13;;;25.55;;
15952;SDS011;8075;47.766;8.846;2024-01-30T13:33:20;35.40;;;25.13;;
15952;SDS011;8075;47.766;8.846;2024-01-30T13:35:47;36.60;;;25.50;;
15952;SDS011;8075;47.766;8.846;2024-01-30T13:38:13;32.03;;;24.60;;
15952;SDS011;8075;47.766;8.846;2024-01-30T13:40:40;36.13;;;25.70;;
15952;SDS011;8075;47.766;8.846;2024-01-30T13:43:06;33.40;;;25.55;;
15952;SDS011;8075;47.766;8.846;2024-01-30T13:45:32;32.38;;;24.20;;
15952;SDS011;8075;47.766;8.846;2024-01-30T13:47:58;28.23;;;23.13;;
15952;SDS011;8075;47.766;8.846;2024-01-30T13:50:24;30.17;;;23.85;;
15952;SDS011;8075;47.766;8.846;2024-01-30T13:52:50;28.20;;;21.48;;
15952;SDS011;8075;47.766;8.846;2024-01-30T13:55:16;28.75;;;21.77;;
15952;SDS011;8075;47.766;8.846;2024-01-30T13:57:42;26.77;;;21.02;;
15952;SDS011;8075;47.766;8.846;2024-01-30T14:00:08;25.45;;;20.83;;
15952;SDS011;8075;47.766;8.846;2024-01-30T14:02:34;26.30;;;21.15;;
15952;SDS011;8075;47.766;8.846;2024-01-30T14:05:00;28.67;;;22.88;;
15952;SDS011;8075;47.766;8.846;2024-01-30T14:07:26;28.25;;;21.98;;
15952;SDS011;8075;47.766;8.846;2024-01-30T14:09:52;30.30;;;23.77;;
15952;SDS011;8075;47.766;8.846;2024-01-30T14:12:18;30.27;;;23.20;;
15952;SDS011;8075;47.766;8.846;2024-01-30T14:14:44;26.40;;;21.13;;
15952;SDS011;8075;47.766;8.846;2024-01-30T14:17:10;28.33;;;22.17;;
15952;SDS011;8075;47.766;8.846;2024-01-30T14:19:36;25.65;;;20.90;;
15952;SDS011;8075;47.766;8.846;2024-01-30T14:22:02;25.47;;;20.83;;
15952;SDS011;8075;47.766;8.846;2024-01-30T14:24:28;30.60;;;23.75;;
15952;SDS011;8075;47.766;8.846;2024-01-30T14:26:54;30.52;;;23.48;;
15952;SDS011;8075;47.766;8.846;2024-01-30T14:29:20;33.10;;;24.23;;
15952;SDS011;8075;47.766;8.846;2024-01-30T14:31:46;31.73;;;23.02;;
15952;SDS011;8075;47.766;8.846;2024-01-30T14:34:12;26.25;;;21.60;;